Terminal Aerodrome Forecast
Issued by NWS

Home | Current Version | Previous Version | Text Only | Print | Product List | Glossary On
Versions: 1 2 3 4 5 6 7 8 9 10 11 12 13 14 15 16 17
206
FTUS45 KABQ 310521
TAFLVS
TAF
KLVS 310521Z 3106/0106 18011KT P6SM SCT120
     FM310800 04007KT P6SM SCT120
     FM311400 03010KT P6SM SCT100
     FM312200 13013KT P6SM VCTS BKN080CB=

USA.gov is the U.S. government's official web portal to all federal, state and local government web resources and services.